Al Cenac — WDD5445 — position and weather

sailwx.info

Track history (hours):
 
Tides and Currents Weather Stations Pressure Air Temp Water Temp Dewpoint Dewpoint Depression Visibility Wind Speed Wind Dir Waves Ship Positions

Al Cenac

Owner: Caillou Island Towing Co, Inc., Houma, LA. More information available from US FCC via Universal Licensing System and Coast Guard Vessel Documentation Center.

Last reported at 2015-Mar-02 17:32 UTC. Time now 2015-Mar-03 00:33 UTC.
Position N 40°39' W 074°09'.

; draft 10 m.

MMSI: 367158530.

Date/timePositionNaut miles runAvg speedWind from/ knotsBaromVisibWave heightAir tempDewpointWater temp
2015-Mar-02 17:32N 40°39' W 074°09'4 3.6
2015-Mar-02 16:33N 40°39' W 074°04'5 0.9
2015-Mar-02 11:29N 40°39' W 074°11'2 0.3
2015-Mar-02 05:23N 40°38' W 074°08'7 8.5
2015-Mar-02 04:34N 40°43' W 074°01'11 1.7
2015-Mar-01 22:06N 40°53' W 073°56'610.1
2015-Mar-01 21:33N 40°48' W 073°59'9 9.3
2015-Mar-01 20:33N 40°40' W 074°03'3 3.0
2015-Mar-01 19:32N 40°39' W 074°07'0 0.0
2015-Mar-01 18:33N 40°39' W 074°07'4 4.2
2015-Mar-01 17:32N 40°37' W 074°12'5 4.0
2015-Mar-01 16:21N 40°33' W 074°15'0 0.1
2015-Mar-01 10:27N 40°32' W 074°15'1 1.2
2015-Mar-01 09:24N 40°34' W 074°14'6 1.0
2015-Mar-01 03:26N 40°39' W 074°10'6 6.4
2015-Mar-01 02:33N 40°39' W 074°02'3 2.3
2015-Mar-01 01:29N 40°40' W 073°60'0 0.0
2015-Mar-01 00:30N 40°40' W 073°60'0 0.0
2015-Feb-28 23:30N 40°40' W 073°60'0 0.0
2015-Feb-28 22:31N 40°40' W 073°60'1 0.2
2015-Feb-28 19:19N 40°40' W 074°00'5 6.0
2015-Feb-28 18:27N 40°39' W 074°07'2 2.2
2015-Feb-28 17:25N 40°39' W 074°10'2 0.3
2015-Feb-28 11:24N 40°38' W 074°08'3 3.7
2015-Feb-28 10:33N 40°38' W 074°12'0 0.0
2015-Feb-28 01:14N 40°38' W 074°12'5 8.0
2015-Feb-28 00:33N 40°39' W 074°05'8 8.0
2015-Feb-27 23:34N 40°46' W 074°00'0 0.3
2015-Feb-27 22:32N 40°46' W 073°60'0 0.0
2015-Feb-27 21:33N 40°46' W 073°60'0 0.0
2015-Feb-27 20:33N 40°46' W 073°60'0 0.0
2015-Feb-27 19:31N 40°46' W 073°60'2 1.8
2015-Feb-27 18:34N 40°45' W 074°01'7 5.8
2015-Feb-27 17:23N 40°39' W 074°05'0 0.1
2015-Feb-27 16:33N 40°39' W 074°05'1 1.3
2015-Feb-27 15:32N 40°40' W 074°04'0 0.0
2015-Feb-27 14:33N 40°40' W 074°04'3 2.9
2015-Feb-27 13:33N 40°42' W 074°02'4 4.1
2015-Feb-27 12:33N 40°46' W 074°00'0 0.2
2015-Feb-27 11:33N 40°46' W 073°60'6 6.3
2015-Feb-27 10:33N 40°40' W 074°03'4 1.8
2015-Feb-27 08:13N 40°38' W 074°08'4 0.3
2015-Feb-26 20:26N 40°37' W 074°12'2 0.6
2015-Feb-26 16:26N 40°39' W 074°10'5 1.2
2015-Feb-26 12:29N 40°39' W 074°04'5 4.6
2015-Feb-26 11:29N 40°42' W 073°60'1 0.8
2015-Feb-26 10:16N 40°42' W 073°58'0 0.0
2015-Feb-26 07:18N 40°42' W 073°58'1 0.3
2015-Feb-26 04:29N 40°43' W 073°58'3 1.6
2015-Feb-26 02:21N 40°46' W 073°57'5 5.8
2015-Feb-26 01:31N 40°42' W 073°60'1 1.2
2015-Feb-26 00:32N 40°41' W 074°00'0 0.0
2015-Feb-25 23:21N 40°41' W 074°00'0 0.0
2015-Feb-25 22:23N 40°41' W 074°00'3 1.5
2015-Feb-25 20:32N 40°43' W 073°58'8 3.4
2015-Feb-25 18:07N 40°39' W 074°07'1 0.1
2015-Feb-25 03:18N 40°38' W 074°08'0 0.0
2015-Feb-24 02:11N 40°38' W 074°08'0 0.0
2015-Feb-24 00:24N 40°38' W 074°08'0 0.0
2015-Feb-23 18:27N 40°38' W 074°08'0 0.0
2015-Feb-23 15:29N 40°38' W 074°08'0 0.0
2015-Feb-23 11:22N 40°38' W 074°08'0 0.0
2015-Feb-23 10:23N 40°38' W 074°08'0 0.0
2015-Feb-23 09:29N 40°38' W 074°08'0 0.0
2015-Feb-23 03:09N 40°38' W 074°08'0 0.0
2015-Feb-23 02:28N 40°38' W 074°08'0 0.0
2015-Feb-23 01:22N 40°38' W 074°08'0 0.0
2015-Feb-23 00:29N 40°38' W 074°08'0 0.0
2015-Feb-22 23:24N 40°38' W 074°08'1 0.0
2015-Feb-21 17:32N 40°39' W 074°10'1 0.3
2015-Feb-21 12:18N 40°38' W 074°08'0 0.0
2015-Feb-21 06:25N 40°38' W 074°08'0 0.0
2015-Feb-21 04:26N 40°38' W 074°08'0 0.0
2015-Feb-20 23:32N 40°38' W 074°08'  
Track history (hours):
 
Tides and Currents Weather Stations Pressure Air Temp Water Temp Dewpoint Dewpoint Depression Visibility Wind Speed Wind Dir Waves Ship Positions

Al Cenac

Owner: Caillou Island Towing Co, Inc., Houma, LA. More information available from US FCC via Universal Licensing System and Coast Guard Vessel Documentation Center.

Last reported at 2015-Mar-02 17:32 UTC. Time now 2015-Mar-03 00:33 UTC.
Position N 40°39' W 074°09'.

; draft 10 m.

MMSI: 367158530.

Date/timePositionNaut miles runAvg speedWind from/ knotsBaromVisibWave heightAir tempDewpointWater temp
2015-Mar-02 17:32N 40°39' W 074°09'4 3.6
2015-Mar-02 16:33N 40°39' W 074°04'5 0.9
2015-Mar-02 11:29N 40°39' W 074°11'2 0.3
2015-Mar-02 05:23N 40°38' W 074°08'7 8.5
2015-Mar-02 04:34N 40°43' W 074°01'11 1.7
2015-Mar-01 22:06N 40°53' W 073°56'610.1
2015-Mar-01 21:33N 40°48' W 073°59'9 9.3
2015-Mar-01 20:33N 40°40' W 074°03'3 3.0
2015-Mar-01 19:32N 40°39' W 074°07'0 0.0
2015-Mar-01 18:33N 40°39' W 074°07'4 4.2
2015-Mar-01 17:32N 40°37' W 074°12'5 4.0
2015-Mar-01 16:21N 40°33' W 074°15'0 0.1
2015-Mar-01 10:27N 40°32' W 074°15'1 1.2
2015-Mar-01 09:24N 40°34' W 074°14'6 1.0
2015-Mar-01 03:26N 40°39' W 074°10'6 6.4
2015-Mar-01 02:33N 40°39' W 074°02'3 2.3
2015-Mar-01 01:29N 40°40' W 073°60'0 0.0
2015-Mar-01 00:30N 40°40' W 073°60'0 0.0
2015-Feb-28 23:30N 40°40' W 073°60'0 0.0
2015-Feb-28 22:31N 40°40' W 073°60'1 0.2
2015-Feb-28 19:19N 40°40' W 074°00'5 6.0
2015-Feb-28 18:27N 40°39' W 074°07'2 2.2
2015-Feb-28 17:25N 40°39' W 074°10'2 0.3
2015-Feb-28 11:24N 40°38' W 074°08'3 3.7
2015-Feb-28 10:33N 40°38' W 074°12'0 0.0
2015-Feb-28 01:14N 40°38' W 074°12'5 8.0
2015-Feb-28 00:33N 40°39' W 074°05'8 8.0
2015-Feb-27 23:34N 40°46' W 074°00'0 0.3
2015-Feb-27 22:32N 40°46' W 073°60'0 0.0
2015-Feb-27 21:33N 40°46' W 073°60'0 0.0
2015-Feb-27 20:33N 40°46' W 073°60'0 0.0
2015-Feb-27 19:31N 40°46' W 073°60'2 1.8
2015-Feb-27 18:34N 40°45' W 074°01'7 5.8
2015-Feb-27 17:23N 40°39' W 074°05'0 0.1
2015-Feb-27 16:33N 40°39' W 074°05'1 1.3
2015-Feb-27 15:32N 40°40' W 074°04'0 0.0
2015-Feb-27 14:33N 40°40' W 074°04'3 2.9
2015-Feb-27 13:33N 40°42' W 074°02'4 4.1
2015-Feb-27 12:33N 40°46' W 074°00'0 0.2
2015-Feb-27 11:33N 40°46' W 073°60'6 6.3
2015-Feb-27 10:33N 40°40' W 074°03'4 1.8
2015-Feb-27 08:13N 40°38' W 074°08'4 0.3
2015-Feb-26 20:26N 40°37' W 074°12'2 0.6
2015-Feb-26 16:26N 40°39' W 074°10'5 1.2
2015-Feb-26 12:29N 40°39' W 074°04'5 4.6
2015-Feb-26 11:29N 40°42' W 073°60'1 0.8
2015-Feb-26 10:16N 40°42' W 073°58'0 0.0
2015-Feb-26 07:18N 40°42' W 073°58'1 0.3
2015-Feb-26 04:29N 40°43' W 073°58'3 1.6
2015-Feb-26 02:21N 40°46' W 073°57'5 5.8
2015-Feb-26 01:31N 40°42' W 073°60'1 1.2
2015-Feb-26 00:32N 40°41' W 074°00'0 0.0
2015-Feb-25 23:21N 40°41' W 074°00'0 0.0
2015-Feb-25 22:23N 40°41' W 074°00'3 1.5
2015-Feb-25 20:32N 40°43' W 073°58'8 3.4
2015-Feb-25 18:07N 40°39' W 074°07'1 0.1
2015-Feb-25 03:18N 40°38' W 074°08'0 0.0
2015-Feb-24 02:11N 40°38' W 074°08'0 0.0
2015-Feb-24 00:24N 40°38' W 074°08'0 0.0
2015-Feb-23 18:27N 40°38' W 074°08'0 0.0
2015-Feb-23 15:29N 40°38' W 074°08'0 0.0
2015-Feb-23 11:22N 40°38' W 074°08'0 0.0
2015-Feb-23 10:23N 40°38' W 074°08'0 0.0
2015-Feb-23 09:29N 40°38' W 074°08'0 0.0
2015-Feb-23 03:09N 40°38' W 074°08'0 0.0
2015-Feb-23 02:28N 40°38' W 074°08'0 0.0
2015-Feb-23 01:22N 40°38' W 074°08'0 0.0
2015-Feb-23 00:29N 40°38' W 074°08'0 0.0
2015-Feb-22 23:24N 40°38' W 074°08'1 0.0
2015-Feb-21 17:32N 40°39' W 074°10'1 0.3
2015-Feb-21 12:18N 40°38' W 074°08'0 0.0
2015-Feb-21 06:25N 40°38' W 074°08'0 0.0
2015-Feb-21 04:26N 40°38' W 074°08'0 0.0
2015-Feb-20 23:32N 40°38' W 074°08'  

Dump ship's entire track history